Time;durP1;ratioP1;P1;durP2;ratioP2;P2;SDS_P1;SDS_P2;PMS_P1;PMS_P2;Temp;Humidity;BMP_temperature;BMP_pressure;BME280_temperature;BME280_humidity;BME280_pressure;Samples;Min_cycle;Max_cycle;Signal;HPM_P1;HPM_P2
2021/12/19 00:02:36;;;;;;;;;;;2.70;43.50;;;;;;5101687;28;20295;-69
2021/12/19 00:10:37;;;;;;;;;;;2.80;44.30;;;;;;5097954;28;20022;-69
2021/12/19 00:13:06;;;;;;;;;;;2.80;44.00;;;;;;5102141;28;20503;-68
2021/12/19 00:15:36;;;;;;;;;;;2.70;43.70;;;;;;5098685;28;19981;-68
2021/12/19 00:18:04;;;;;;;;;;;2.80;44.50;;;;;;5106632;27;20051;-68
2021/12/19 00:20:33;;;;;;;;;;;2.80;44.50;;;;;;5107636;28;19920;-68
2021/12/19 00:23:21;;;;;;;;;;;2.80;43.70;;;;;;5101006;28;19931;-69
2021/12/19 00:25:49;;;;;;;;;;;2.70;44.30;;;;;;5102762;27;19994;-68
2021/12/19 00:28:17;;;;;;;;;;;2.70;45.70;;;;;;5109562;27;19926;-68
2021/12/19 00:30:44;;;;;;;;;;;2.70;45.40;;;;;;5100806;28;20397;-68
2021/12/19 00:33:13;;;;;;;;;;;2.80;45.70;;;;;;5097580;28;19924;-68
2021/12/19 00:35:42;;;;;;;;;;;2.80;45.80;;;;;;5096833;28;20022;-69
2021/12/19 00:38:12;;;;;;;;;;;2.80;45.80;;;;;;5100892;28;19967;-69
2021/12/19 00:40:42;;;;;;;;;;;2.90;45.90;;;;;;5080236;28;20333;-68
2021/12/19 00:43:21;;;;;;;;;;;2.80;45.20;;;;;;5098297;27;20659;-68
2021/12/19 00:45:50;;;;;;;;;;;2.80;45.70;;;;;;5097433;28;19925;-68
2021/12/19 00:48:18;;;;;;;;;;;2.80;45.70;;;;;;5097965;28;19938;-68
2021/12/19 00:50:52;;;;;;;;;;;2.80;46.00;;;;;;5085240;28;20022;-68
2021/12/19 00:53:20;;;;;;;;;;;2.70;45.80;;;;;;5083311;28;19932;-68
2021/12/19 00:55:48;;;;;;;;;;;2.80;46.70;;;;;;5103694;27;19920;-70
2021/12/19 00:58:16;;;;;;;;;;;2.80;46.20;;;;;;5103127;28;19919;-68
2021/12/19 01:00:44;;;;;;;;;;;2.80;46.60;;;;;;5084042;28;20327;-68
2021/12/19 01:03:12;;;;;;;;;;;2.70;46.60;;;;;;5101544;28;19927;-68
2021/12/19 01:05:41;;;;;;;;;;;2.80;46.80;;;;;;5096729;28;19959;-68
2021/12/19 01:08:12;;;;;;;;;;;2.70;46.60;;;;;;5099136;27;19923;-68
2021/12/19 01:10:41;;;;;;;;;;;2.80;47.30;;;;;;5095762;27;19919;-69
2021/12/19 01:13:08;;;;;;;;;;;2.70;46.90;;;;;;5093202;28;19933;-69
2021/12/19 01:15:36;;;;;;;;;;;2.60;47.00;;;;;;5083926;28;20022;-67
2021/12/19 01:18:05;;;;;;;;;;;2.80;48.00;;;;;;5099410;27;20004;-67
2021/12/19 01:20:33;;;;;;;;;;;2.70;47.30;;;;;;5101662;28;19920;-69
2021/12/19 01:23:05;;;;;;;;;;;2.80;47.70;;;;;;5095792;28;19924;-67
2021/12/19 01:25:34;;;;;;;;;;;2.80;47.40;;;;;;5095999;28;19934;-68
2021/12/19 01:28:03;;;;;;;;;;;2.90;47.50;;;;;;5098267;27;20003;-68
2021/12/19 01:30:31;;;;;;;;;;;2.90;46.80;;;;;;5099081;28;19926;-67
2021/12/19 01:32:58;;;;;;;;;;;2.70;45.30;;;;;;5098409;28;20309;-67
2021/12/19 01:35:27;;;;;;;;;;;2.90;46.80;;;;;;5062853;28;20363;-68
2021/12/19 01:37:54;;;;;;;;;;;2.80;46.00;;;;;;5099436;28;19947;-67
2021/12/19 01:40:23;;;;;;;;;;;2.70;46.00;;;;;;5100111;28;20438;-68
2021/12/19 01:42:53;;;;;;;;;;;2.80;46.70;;;;;;5097773;28;20039;-68
2021/12/19 01:45:26;;;;;;;;;;;2.80;46.00;;;;;;5079993;28;19962;-67
2021/12/19 01:47:54;;;;;;;;;;;2.70;46.20;;;;;;5079487;28;19923;-67
2021/12/19 01:50:22;;;;;;;;;;;2.70;45.70;;;;;;5099829;28;19924;-68
2021/12/19 01:52:50;;;;;;;;;;;2.70;46.00;;;;;;5096504;27;19927;-67
2021/12/19 01:55:18;;;;;;;;;;;2.80;46.50;;;;;;5096456;28;19973;-67
2021/12/19 01:57:49;;;;;;;;;;;2.80;46.10;;;;;;5081116;28;19932;-68
2021/12/19 02:00:23;;;;;;;;;;;2.80;45.80;;;;;;5100982;28;20380;-69
2021/12/19 02:02:51;;;;;;;;;;;2.80;45.70;;;;;;5099841;28;20006;-67
2021/12/19 02:05:19;;;;;;;;;;;2.80;45.60;;;;;;5097486;28;19923;-68
2021/12/19 02:07:48;;;;;;;;;;;2.90;45.70;;;;;;5102664;27;19920;-67
2021/12/19 02:10:18;;;;;;;;;;;2.80;45.10;;;;;;5102318;28;20010;-68
2021/12/19 02:12:47;;;;;;;;;;;2.70;45.10;;;;;;5100805;27;19923;-68
2021/12/19 02:15:17;;;;;;;;;;;2.80;44.90;;;;;;5081575;28;19971;-68
2021/12/19 02:17:46;;;;;;;;;;;2.80;44.60;;;;;;5100449;28;19919;-67
2021/12/19 02:20:16;;;;;;;;;;;2.70;44.40;;;;;;5088562;28;19928;-68
2021/12/19 02:22:44;;;;;;;;;;;2.70;44.60;;;;;;5099376;28;19945;-67
2021/12/19 02:25:14;;;;;;;;;;;2.80;45.60;;;;;;5097668;28;19980;-68
2021/12/19 02:27:42;;;;;;;;;;;2.70;45.00;;;;;;5097584;28;19920;-68
2021/12/19 02:30:11;;;;;;;;;;;2.80;45.80;;;;;;5080948;28;20333;-67
2021/12/19 02:32:40;;;;;;;;;;;2.80;45.80;;;;;;5098479;28;19919;-66
2021/12/19 02:35:12;;;;;;;;;;;2.80;46.00;;;;;;5097108;28;20144;-67
2021/12/19 02:38:08;;;;;;;;;;;2.80;46.00;;;;;;5104961;27;19930;-67
2021/12/19 02:48:53;;;;;;;;;;;2.80;46.20;;;;;;5100543;28;20006;-68
2021/12/19 02:51:21;;;;;;;;;;;2.70;45.30;;;;;;5101200;28;20298;-68
2021/12/19 02:53:50;;;;;;;;;;;2.80;46.30;;;;;;5094719;28;19923;-68
2021/12/19 02:56:19;;;;;;;;;;;2.90;46.30;;;;;;5093763;28;19930;-69
2021/12/19 02:58:47;;;;;;;;;;;2.80;44.90;;;;;;5096603;28;20398;-69
2021/12/19 03:01:16;;;;;;;;;;;2.80;45.30;;;;;;5099206;28;19920;-68
2021/12/19 03:03:44;;;;;;;;;;;2.70;45.00;;;;;;5096418;28;20018;-69
2021/12/19 03:06:12;;;;;;;;;;;2.70;44.80;;;;;;5086672;28;19958;-67
2021/12/19 03:08:44;;;;;;;;;;;2.80;45.80;;;;;;5096692;28;20441;-69
2021/12/19 03:11:49;;;;;;;;;;;2.80;45.10;;;;;;5093474;28;19919;-69
2021/12/19 03:19:45;;;;;;;;;;;2.70;45.50;;;;;;5094810;28;19926;-69
2021/12/19 03:22:13;;;;;;;;;;;2.70;45.70;;;;;;5093693;28;19920;-69
2021/12/19 03:24:40;;;;;;;;;;;2.70;45.50;;;;;;5084533;28;19928;-70
2021/12/19 03:27:09;;;;;;;;;;;2.80;46.60;;;;;;5102387;28;19934;-69
2021/12/19 03:29:37;;;;;;;;;;;2.70;45.70;;;;;;5102566;28;19924;-69
2021/12/19 03:32:05;;;;;;;;;;;2.60;45.70;;;;;;5104464;28;19926;-69
2021/12/19 03:34:35;;;;;;;;;;;2.70;46.20;;;;;;5097348;28;20410;-69
2021/12/19 03:37:03;;;;;;;;;;;2.60;45.90;;;;;;5098735;28;19963;-69
2021/12/19 03:39:44;;;;;;;;;;;2.60;46.30;;;;;;5100571;28;19920;-69
2021/12/19 03:42:13;;;;;;;;;;;2.70;47.00;;;;;;5102223;28;20451;-69
2021/12/19 03:44:41;;;;;;;;;;;2.60;46.30;;;;;;5095840;28;19919;-69
2021/12/19 03:47:09;;;;;;;;;;;2.70;47.00;;;;;;5102546;28;19934;-69
2021/12/19 03:49:37;;;;;;;;;;;2.60;46.50;;;;;;5106007;28;19930;-68
2021/12/19 03:52:05;;;;;;;;;;;2.70;47.00;;;;;;5108203;27;19919;-68
2021/12/19 03:54:33;;;;;;;;;;;2.70;46.80;;;;;;5093494;27;19946;-69
2021/12/19 03:57:01;;;;;;;;;;;2.50;46.60;;;;;;5103648;27;20030;-68
2021/12/19 03:59:32;;;;;;;;;;;2.50;47.90;;;;;;5088538;28;20348;-69
2021/12/19 04:02:00;;;;;;;;;;;2.60;48.30;;;;;;5085848;28;20102;-68
2021/12/19 04:04:30;;;;;;;;;;;2.60;47.80;;;;;;5100453;28;19920;-69
2021/12/19 04:06:58;;;;;;;;;;;2.50;47.60;;;;;;5097063;28;20019;-69
2021/12/19 04:09:27;;;;;;;;;;;2.50;47.40;;;;;;5099958;28;19949;-68
2021/12/19 04:11:55;;;;;;;;;;;2.60;48.30;;;;;;5107938;28;20018;-68
2021/12/19 04:14:23;;;;;;;;;;;2.60;48.30;;;;;;5100958;28;20347;-68
2021/12/19 04:16:52;;;;;;;;;;;2.60;47.40;;;;;;5103791;27;19919;-68
2021/12/19 04:19:21;;;;;;;;;;;2.50;47.90;;;;;;5103258;28;19999;-68
2021/12/19 04:21:49;;;;;;;;;;;2.50;48.20;;;;;;5087272;28;19928;-68
2021/12/19 04:24:16;;;;;;;;;;;2.60;48.20;;;;;;5102379;28;19927;-68
2021/12/19 04:26:44;;;;;;;;;;;2.50;48.20;;;;;;5097485;28;19958;-68
2021/12/19 04:29:12;;;;;;;;;;;2.50;48.30;;;;;;5103246;28;19959;-67
2021/12/19 04:31:41;;;;;;;;;;;2.50;48.10;;;;;;5098464;28;19927;-68
2021/12/19 04:34:12;;;;;;;;;;;2.60;48.30;;;;;;5104797;27;20052;-68
2021/12/19 04:36:43;;;;;;;;;;;2.60;48.30;;;;;;5103855;27;20375;-68
2021/12/19 04:39:24;;;;;;;;;;;2.40;47.00;;;;;;5106197;27;19927;-68
2021/12/19 04:53:20;;;;;;;;;;;2.50;48.00;;;;;;5076166;28;20019;-68
2021/12/19 04:58:54;;;;;;;;;;;2.60;48.10;;;;;;5075685;28;19931;-68
2021/12/19 05:04:13;;;;;;;;;;;2.40;48.00;;;;;;5060192;28;19962;-68
2021/12/19 05:14:07;;;;;;;;;;;2.40;46.90;;;;;;5074528;28;19967;-67
2021/12/19 05:15:13;;;;;;;;;;;2.40;47.90;;;;;;5073776;28;20462;-67
2021/12/19 05:17:42;;;;;;;;;;;2.40;48.00;;;;;;5075766;28;19938;-68
2021/12/19 05:20:15;;;;;;;;;;;2.30;47.90;;;;;;5085753;28;19973;-68
2021/12/19 05:22:47;;;;;;;;;;;2.30;48.00;;;;;;5096836;28;20014;-68
2021/12/19 05:25:17;;;;;;;;;;;2.40;48.10;;;;;;5091779;28;19939;-67
2021/12/19 05:27:45;;;;;;;;;;;2.30;47.90;;;;;;5101075;28;20337;-68
2021/12/19 05:30:14;;;;;;;;;;;2.40;48.20;;;;;;5097480;28;19958;-68
2021/12/19 05:32:44;;;;;;;;;;;2.20;47.00;;;;;;5075473;28;20672;-67
2021/12/19 05:35:14;;;;;;;;;;;2.20;48.00;;;;;;5082201;28;19954;-68
2021/12/19 05:46:00;;;;;;;;;;;2.30;48.50;;;;;;5073316;28;20400;-68
2021/12/19 05:48:30;;;;;;;;;;;2.20;48.00;;;;;;5078739;28;19924;-68
2021/12/19 05:50:58;;;;;;;;;;;2.30;48.20;;;;;;5062242;28;20349;-67
2021/12/19 05:53:26;;;;;;;;;;;2.30;48.10;;;;;;5074451;28;19939;-68
2021/12/19 05:55:54;;;;;;;;;;;2.30;48.10;;;;;;5059451;28;19932;-68
2021/12/19 05:58:21;;;;;;;;;;;2.30;48.20;;;;;;5065572;28;19924;-68
2021/12/19 06:00:49;;;;;;;;;;;2.30;47.90;;;;;;5063411;28;19928;-67
2021/12/19 06:03:17;;;;;;;;;;;2.30;48.00;;;;;;5064182;28;19931;-68
2021/12/19 06:05:46;;;;;;;;;;;2.30;48.00;;;;;;5057944;28;19924;-68
2021/12/19 06:08:14;;;;;;;;;;;2.30;48.10;;;;;;5060904;28;20450;-68
2021/12/19 06:10:42;;;;;;;;;;;2.30;48.00;;;;;;5061785;28;20027;-68
2021/12/19 06:13:10;;;;;;;;;;;2.30;48.00;;;;;;5063592;28;19928;-67
2021/12/19 06:15:38;;;;;;;;;;;2.30;47.80;;;;;;5055190;28;20086;-67
2021/12/19 06:18:06;;;;;;;;;;;2.30;47.90;;;;;;5086630;28;20308;-67
2021/12/19 06:20:33;;;;;;;;;;;2.30;47.60;;;;;;5083817;28;19959;-67
2021/12/19 06:23:03;;;;;;;;;;;2.30;47.40;;;;;;5068444;28;19985;-66
2021/12/19 06:25:31;;;;;;;;;;;2.30;47.10;;;;;;5067987;28;19929;-68
2021/12/19 06:27:59;;;;;;;;;;;2.30;46.80;;;;;;5061498;28;19941;-68
2021/12/19 06:30:30;;;;;;;;;;;2.30;47.60;;;;;;5061925;28;19925;-68
2021/12/19 06:32:57;;;;;;;;;;;2.30;46.90;;;;;;5065994;28;19931;-67
2021/12/19 06:35:29;;;;;;;;;;;2.30;47.30;;;;;;5060565;28;20326;-68
2021/12/19 06:37:57;;;;;;;;;;;2.20;46.30;;;;;;5067261;28;19925;-68
2021/12/19 06:40:27;;;;;;;;;;;2.10;46.40;;;;;;5065341;28;19924;-68
2021/12/19 06:42:55;;;;;;;;;;;2.10;47.10;;;;;;5067409;28;20391;-68
2021/12/19 06:45:23;;;;;;;;;;;2.10;45.30;;;;;;5062170;28;19960;-67
2021/12/19 06:47:51;;;;;;;;;;;2.10;46.60;;;;;;5065131;28;19925;-67
2021/12/19 06:50:23;;;;;;;;;;;2.10;46.30;;;;;;5062577;28;20685;-68
2021/12/19 06:52:51;;;;;;;;;;;2.10;46.90;;;;;;5058945;28;19931;-68
2021/12/19 06:55:19;;;;;;;;;;;2.20;46.80;;;;;;5050709;28;19924;-68
2021/12/19 06:57:49;;;;;;;;;;;2.20;46.60;;;;;;5062301;28;19929;-67
2021/12/19 07:00:18;;;;;;;;;;;2.20;46.30;;;;;;5063739;28;20614;-68
2021/12/19 07:02:46;;;;;;;;;;;2.10;45.90;;;;;;5066022;28;20376;-68
2021/12/19 07:05:14;;;;;;;;;;;2.20;46.70;;;;;;5058733;28;19944;-68
2021/12/19 07:07:42;;;;;;;;;;;2.10;45.70;;;;;;5058645;28;20015;-68
2021/12/19 07:10:11;;;;;;;;;;;2.10;46.80;;;;;;5038271;28;19936;-68
2021/12/19 07:12:39;;;;;;;;;;;2.10;46.20;;;;;;5066496;28;20019;-68
2021/12/19 07:15:09;;;;;;;;;;;2.00;45.90;;;;;;5059192;28;19959;-68
2021/12/19 07:17:37;;;;;;;;;;;2.00;46.00;;;;;;5050454;28;20011;-68
2021/12/19 07:20:06;;;;;;;;;;;2.10;47.20;;;;;;5064955;28;19933;-68
2021/12/19 07:22:34;;;;;;;;;;;2.10;46.30;;;;;;5056381;28;20009;-68
2021/12/19 07:25:02;;;;;;;;;;;2.10;47.00;;;;;;5038033;28;19933;-68
2021/12/19 07:27:30;;;;;;;;;;;2.10;46.70;;;;;;5046010;28;19947;-68
2021/12/19 07:29:58;;;;;;;;;;;2.10;47.00;;;;;;5060274;28;20327;-69
2021/12/19 07:32:30;;;;;;;;;;;2.20;47.00;;;;;;5032773;28;19925;-68
2021/12/19 07:35:18;;;;;;;;;;;2.20;46.80;;;;;;5052230;28;19928;-68
2021/12/19 07:37:48;;;;;;;;;;;2.10;47.10;;;;;;5063772;28;20080;-68
2021/12/19 07:40:20;;;;;;;;;;;2.20;47.00;;;;;;5059248;28;19970;-68
2021/12/19 07:42:48;;;;;;;;;;;2.20;46.30;;;;;;5063560;28;19974;-68
2021/12/19 07:45:17;;;;;;;;;;;2.20;47.80;;;;;;5040932;28;19929;-67
2021/12/19 07:47:50;;;;;;;;;;;2.20;46.70;;;;;;5063690;28;19970;-67
2021/12/19 07:50:19;;;;;;;;;;;2.30;46.90;;;;;;5061575;28;19935;-68
2021/12/19 07:52:46;;;;;;;;;;;2.30;46.60;;;;;;5061799;28;20015;-68
2021/12/19 07:55:14;;;;;;;;;;;2.40;46.60;;;;;;5053833;28;20269;-68
2021/12/19 07:57:42;;;;;;;;;;;2.20;46.10;;;;;;5062743;28;19976;-69
2021/12/19 08:00:11;;;;;;;;;;;2.30;46.50;;;;;;5062883;28;19939;-68
2021/12/19 08:02:39;;;;;;;;;;;2.30;46.20;;;;;;5061326;28;20019;-68
2021/12/19 08:05:09;;;;;;;;;;;2.30;45.70;;;;;;5055727;28;19928;-67
2021/12/19 08:07:38;;;;;;;;;;;2.40;46.70;;;;;;5060505;28;19925;-67
2021/12/19 08:10:14;;;;;;;;;;;2.40;46.50;;;;;;5064633;28;19928;-67
2021/12/19 08:12:41;;;;;;;;;;;2.40;45.90;;;;;;5061863;28;19928;-68
2021/12/19 08:15:09;;;;;;;;;;;2.30;45.50;;;;;;5048604;28;19932;-68
2021/12/19 08:17:37;;;;;;;;;;;2.30;44.70;;;;;;5060687;28;19924;-68
2021/12/19 08:20:09;;;;;;;;;;;2.30;45.20;;;;;;5044899;28;19967;-68
2021/12/19 08:22:39;;;;;;;;;;;2.30;45.80;;;;;;5050956;28;19939;-67
2021/12/19 08:25:07;;;;;;;;;;;2.40;46.10;;;;;;5073020;28;19925;-68
2021/12/19 08:27:37;;;;;;;;;;;2.40;45.90;;;;;;5062337;28;19928;-68
2021/12/19 08:30:06;;;;;;;;;;;2.40;45.90;;;;;;5044729;28;20298;-68
2021/12/19 08:32:33;;;;;;;;;;;2.40;44.80;;;;;;5073233;28;19978;-68
2021/12/19 08:35:01;;;;;;;;;;;2.40;44.70;;;;;;5062208;28;19959;-67
2021/12/19 08:37:31;;;;;;;;;;;2.50;44.90;;;;;;5060817;28;19936;-68
2021/12/19 08:40:00;;;;;;;;;;;2.40;43.40;;;;;;5046923;28;19978;-68
2021/12/19 08:42:31;;;;;;;;;;;2.50;44.40;;;;;;5062693;28;19947;-69
2021/12/19 08:44:59;;;;;;;;;;;2.50;44.20;;;;;;5049963;28;19939;-68
2021/12/19 08:47:28;;;;;;;;;;;2.50;44.80;;;;;;5058881;28;19940;-68
2021/12/19 08:49:56;;;;;;;;;;;2.50;42.90;;;;;;5062370;28;19925;-68
2021/12/19 08:52:24;;;;;;;;;;;2.60;43.80;;;;;;5064819;28;19931;-68
2021/12/19 08:54:54;;;;;;;;;;;2.60;43.00;;;;;;5054741;28;20023;-69
2021/12/19 08:57:23;;;;;;;;;;;2.80;43.50;;;;;;5057858;28;20380;-67
2021/12/19 08:59:52;;;;;;;;;;;2.80;43.30;;;;;;5059359;28;19928;-68
2021/12/19 09:02:20;;;;;;;;;;;2.80;43.00;;;;;;5061055;28;19929;-68
2021/12/19 09:04:48;;;;;;;;;;;2.90;43.30;;;;;;5054377;28;19925;-68
2021/12/19 09:07:18;;;;;;;;;;;2.80;41.20;;;;;;5060820;28;19925;-68
2021/12/19 09:09:49;;;;;;;;;;;2.80;42.20;;;;;;5044405;28;19924;-68
2021/12/19 09:12:17;;;;;;;;;;;2.80;41.20;;;;;;5059207;28;19928;-67
2021/12/19 09:14:46;;;;;;;;;;;2.80;41.30;;;;;;5060428;28;20425;-68
2021/12/19 09:17:14;;;;;;;;;;;2.80;41.00;;;;;;5057646;28;20019;-69
2021/12/19 09:19:43;;;;;;;;;;;2.80;41.20;;;;;;5055426;28;19940;-68
2021/12/19 09:22:11;;;;;;;;;;;2.80;41.50;;;;;;5061409;28;19959;-67
2021/12/19 09:24:39;;;;;;;;;;;2.90;41.80;;;;;;5056153;28;20398;-68
2021/12/19 09:27:07;;;;;;;;;;;2.90;40.50;;;;;;5059299;28;19939;-67
2021/12/19 09:29:36;;;;;;;;;;;2.80;40.40;;;;;;5061668;28;19925;-68
2021/12/19 09:32:07;;;;;;;;;;;3.00;41.30;;;;;;5067029;28;19978;-68
2021/12/19 09:34:36;;;;;;;;;;;2.90;41.10;;;;;;5062403;28;19925;-68
2021/12/19 09:37:04;;;;;;;;;;;3.00;40.90;;;;;;5064049;28;19925;-68
2021/12/19 09:39:32;;;;;;;;;;;2.90;40.30;;;;;;5063509;28;20413;-68
2021/12/19 09:42:06;;;;;;;;;;;3.00;40.30;;;;;;5067539;28;19964;-68
2021/12/19 09:44:37;;;;;;;;;;;3.00;40.80;;;;;;5056256;28;19979;-69
2021/12/19 09:47:07;;;;;;;;;;;2.90;40.40;;;;;;5062832;28;19925;-69
2021/12/19 09:49:36;;;;;;;;;;;3.00;40.50;;;;;;5062965;28;19935;-69
2021/12/19 09:52:05;;;;;;;;;;;3.10;40.60;;;;;;5065469;28;19935;-69
2021/12/19 09:54:33;;;;;;;;;;;3.10;39.00;;;;;;5061614;28;20330;-68
2021/12/19 09:57:01;;;;;;;;;;;3.10;39.80;;;;;;5062281;28;20394;-69
2021/12/19 09:59:29;;;;;;;;;;;3.10;39.40;;;;;;5064552;28;19968;-68
2021/12/19 10:01:56;;;;;;;;;;;3.10;38.90;;;;;;5062431;28;19970;-68
2021/12/19 10:04:30;;;;;;;;;;;3.00;39.10;;;;;;5059150;28;20380;-68
2021/12/19 10:07:09;;;;;;;;;;;3.00;39.10;;;;;;5059847;28;19933;-68
2021/12/19 10:09:38;;;;;;;;;;;3.00;40.50;;;;;;5066703;28;19964;-68
2021/12/19 10:12:25;;;;;;;;;;;3.10;40.60;;;;;;5065368;28;19976;-68
2021/12/19 10:14:54;;;;;;;;;;;3.10;40.40;;;;;;5055572;28;20020;-69
2021/12/19 10:17:22;;;;;;;;;;;3.20;40.70;;;;;;5061338;28;19929;-69
2021/12/19 10:19:51;;;;;;;;;;;3.20;40.20;;;;;;5066752;28;19930;-69
2021/12/19 10:22:26;;;;;;;;;;;3.20;40.70;;;;;;5062440;28;19931;-68
2021/12/19 10:24:57;;;;;;;;;;;3.10;38.20;;;;;;5059025;28;20570;-67
2021/12/19 10:27:35;;;;;;;;;;;3.20;39.70;;;;;;5063886;28;19936;-67
2021/12/19 10:30:03;;;;;;;;;;;3.20;39.00;;;;;;5063654;28;20019;-68
2021/12/19 10:32:31;;;;;;;;;;;3.20;38.70;;;;;;5061625;28;19925;-68
2021/12/19 10:35:14;;;;;;;;;;;3.10;39.80;;;;;;5056379;28;20435;-68
2021/12/19 10:37:43;;;;;;;;;;;3.10;38.50;;;;;;5061830;28;19952;-68
2021/12/19 10:40:11;;;;;;;;;;;3.00;38.80;;;;;;5062674;28;20023;-68
2021/12/19 10:42:46;;;;;;;;;;;3.00;39.10;;;;;;5066441;28;20689;-68
2021/12/19 10:48:13;;;;;;;;;;;3.00;38.40;;;;;;5066987;28;19935;-68
2021/12/19 10:50:44;;;;;;;;;;;3.10;36.90;;;;;;5064055;28;19935;-68
2021/12/19 10:53:12;;;;;;;;;;;3.10;38.70;;;;;;5063931;28;19928;-68
2021/12/19 10:55:41;;;;;;;;;;;2.90;36.90;;;;;;5052251;28;20457;-68
2021/12/19 10:58:18;;;;;;;;;;;3.00;38.20;;;;;;5062856;28;20411;-68
2021/12/19 11:00:55;;;;;;;;;;;3.10;37.20;;;;;;5061082;28;19955;-69
2021/12/19 11:03:44;;;;;;;;;;;3.10;36.50;;;;;;5040693;28;19960;-69
2021/12/19 11:06:18;;;;;;;;;;;3.00;37.70;;;;;;5073184;28;19925;-68
2021/12/19 11:08:49;;;;;;;;;;;3.10;39.70;;;;;;5067317;28;19928;-70
2021/12/19 11:11:31;;;;;;;;;;;3.10;39.10;;;;;;5058423;28;19924;-69
2021/12/19 11:13:59;;;;;;;;;;;3.20;38.50;;;;;;5060772;28;20011;-67
2021/12/19 11:16:27;;;;;;;;;;;3.10;38.00;;;;;;5073898;28;19928;-68
2021/12/19 11:18:55;;;;;;;;;;;3.10;38.20;;;;;;5082082;28;19928;-68
2021/12/19 11:21:25;;;;;;;;;;;3.10;37.40;;;;;;5063572;28;20011;-68
2021/12/19 11:23:53;;;;;;;;;;;3.10;35.90;;;;;;5073992;28;19924;-69
2021/12/19 11:26:21;;;;;;;;;;;3.00;34.80;;;;;;5075910;28;19935;-68
2021/12/19 11:28:49;;;;;;;;;;;2.80;34.90;;;;;;5074929;28;20023;-69
2021/12/19 11:31:19;;;;;;;;;;;2.70;36.20;;;;;;5065120;28;20019;-69
2021/12/19 11:33:53;;;;;;;;;;;2.70;37.90;;;;;;5057027;28;19924;-68
2021/12/19 11:36:21;;;;;;;;;;;2.70;38.00;;;;;;5077342;28;19930;-68
2021/12/19 11:38:51;;;;;;;;;;;2.70;36.80;;;;;;5066199;28;19928;-68
2021/12/19 11:41:19;;;;;;;;;;;2.80;38.70;;;;;;5061924;28;19958;-69
2021/12/19 11:43:49;;;;;;;;;;;2.80;37.80;;;;;;5056745;28;20012;-68
2021/12/19 11:46:22;;;;;;;;;;;2.90;39.80;;;;;;5056865;28;19931;-68
2021/12/19 11:49:10;;;;;;;;;;;2.70;37.00;;;;;;5062407;28;19928;-68
2021/12/19 11:51:38;;;;;;;;;;;2.70;39.30;;;;;;5066012;28;19924;-68
2021/12/19 11:54:13;;;;;;;;;;;2.90;39.40;;;;;;5060402;28;20007;-67
2021/12/19 11:57:08;;;;;;;;;;;2.90;37.50;;;;;;5042591;28;20016;-68
2021/12/19 11:59:37;;;;;;;;;;;2.90;37.80;;;;;;5065355;28;19974;-68
2021/12/19 12:02:23;;;;;;;;;;;2.80;36.00;;;;;;5063478;28;19928;-68
2021/12/19 12:05:20;;;;;;;;;;;2.90;38.50;;;;;;5062031;28;19932;-67
2021/12/19 12:08:03;;;;;;;;;;;2.90;37.10;;;;;;5079152;28;20035;-69
2021/12/19 12:10:55;;;;;;;;;;;2.90;36.90;;;;;;5082584;28;20027;-68
2021/12/19 12:13:23;;;;;;;;;;;2.80;35.60;;;;;;5078626;28;20767;-69
2021/12/19 12:15:54;;;;;;;;;;;2.90;35.30;;;;;;5076259;28;20072;-69
2021/12/19 12:18:29;;;;;;;;;;;2.80;35.10;;;;;;5068181;28;19939;-69
2021/12/19 12:20:57;;;;;;;;;;;2.90;34.10;;;;;;5080682;28;19931;-68
2021/12/19 12:23:26;;;;;;;;;;;2.80;34.90;;;;;;5078431;28;19931;-70
2021/12/19 12:25:55;;;;;;;;;;;2.80;37.10;;;;;;5072207;28;19951;-67
2021/12/19 12:28:23;;;;;;;;;;;2.70;37.40;;;;;;5079919;28;19933;-68
2021/12/19 12:30:52;;;;;;;;;;;2.70;38.10;;;;;;5080707;28;20041;-67
2021/12/19 12:33:26;;;;;;;;;;;2.50;40.20;;;;;;5080443;28;19978;-68
2021/12/19 12:35:57;;;;;;;;;;;2.60;40.30;;;;;;5075753;28;19979;-67
2021/12/19 12:38:24;;;;;;;;;;;2.40;40.00;;;;;;5078984;28;19930;-67
2021/12/19 12:40:57;;;;;;;;;;;2.40;40.00;;;;;;5080734;28;20333;-67
2021/12/19 12:43:27;;;;;;;;;;;2.40;41.20;;;;;;5078130;28;20043;-66
2021/12/19 12:46:11;;;;;;;;;;;2.40;41.30;;;;;;5071278;28;19924;-67
2021/12/19 12:48:40;;;;;;;;;;;2.50;42.00;;;;;;5079590;28;19932;-68
2021/12/19 12:51:09;;;;;;;;;;;2.40;41.00;;;;;;5080900;28;20300;-67
2021/12/19 12:53:38;;;;;;;;;;;2.40;40.80;;;;;;5079056;28;20011;-67
2021/12/19 12:56:10;;;;;;;;;;;2.30;41.70;;;;;;5072918;28;20381;-68
2021/12/19 12:58:40;;;;;;;;;;;2.40;41.80;;;;;;5077019;28;19924;-68
2021/12/19 13:01:22;;;;;;;;;;;2.50;42.30;;;;;;5063492;28;19967;-68
2021/12/19 13:04:04;;;;;;;;;;;2.50;41.90;;;;;;5076711;28;19932;-70
2021/12/19 13:06:36;;;;;;;;;;;2.60;41.70;;;;;;5081938;28;19931;-68
2021/12/19 13:09:08;;;;;;;;;;;2.50;40.10;;;;;;5085203;28;19932;-67
2021/12/19 13:11:37;;;;;;;;;;;2.30;39.60;;;;;;5085670;28;20027;-68
2021/12/19 13:14:12;;;;;;;;;;;2.40;40.80;;;;;;5079618;28;19991;-67
2021/12/19 13:16:44;;;;;;;;;;;2.40;41.60;;;;;;5062978;28;20321;-68
2021/12/19 13:19:27;;;;;;;;;;;2.50;42.00;;;;;;5085551;28;20012;-69
2021/12/19 13:21:55;;;;;;;;;;;2.30;41.50;;;;;;5086904;28;20018;-67
2021/12/19 13:24:24;;;;;;;;;;;2.30;42.80;;;;;;5077920;28;19932;-69
2021/12/19 13:27:10;;;;;;;;;;;2.20;43.70;;;;;;5079938;28;19933;-67
2021/12/19 13:29:38;;;;;;;;;;;2.30;45.00;;;;;;5062608;28;19924;-68
2021/12/19 13:32:19;;;;;;;;;;;2.10;45.90;;;;;;5086961;28;19932;-68
2021/12/19 13:34:47;;;;;;;;;;;2.20;45.80;;;;;;5072560;28;19972;-70
2021/12/19 13:37:18;;;;;;;;;;;2.10;44.50;;;;;;5070275;28;19933;-68
2021/12/19 13:39:58;;;;;;;;;;;2.10;45.00;;;;;;5083860;28;20019;-68
2021/12/19 13:42:38;;;;;;;;;;;2.30;46.20;;;;;;5048002;28;20006;-68
2021/12/19 13:45:20;;;;;;;;;;;2.30;44.30;;;;;;5072458;28;20372;-68
2021/12/19 13:47:48;;;;;;;;;;;2.50;45.10;;;;;;5079409;28;19924;-68
2021/12/19 13:50:17;;;;;;;;;;;2.20;41.90;;;;;;5081637;28;19924;-67
2021/12/19 13:52:45;;;;;;;;;;;2.20;43.10;;;;;;5085685;28;20065;-67
2021/12/19 13:55:15;;;;;;;;;;;2.30;44.10;;;;;;5072329;28;19939;-69
2021/12/19 13:57:45;;;;;;;;;;;2.40;45.10;;;;;;5082918;28;20371;-69
2021/12/19 14:00:27;;;;;;;;;;;2.30;43.50;;;;;;5084662;28;19924;-69
2021/12/19 14:02:55;;;;;;;;;;;2.30;43.80;;;;;;5078832;28;20347;-68
2021/12/19 14:05:29;;;;;;;;;;;2.30;43.50;;;;;;5076939;28;19935;-67
2021/12/19 14:07:57;;;;;;;;;;;2.20;42.10;;;;;;5084881;28;19931;-68
2021/12/19 14:10:25;;;;;;;;;;;2.20;42.40;;;;;;5083906;28;19928;-67
2021/12/19 14:13:06;;;;;;;;;;;2.20;43.10;;;;;;5080908;28;19932;-69
2021/12/19 14:15:34;;;;;;;;;;;2.20;43.00;;;;;;5074196;28;19929;-68
2021/12/19 14:18:17;;;;;;;;;;;2.10;43.00;;;;;;5082699;28;20383;-68
2021/12/19 14:20:45;;;;;;;;;;;2.20;43.40;;;;;;5076324;28;20037;-68
2021/12/19 14:23:16;;;;;;;;;;;2.20;42.70;;;;;;5082221;28;19924;-67
2021/12/19 14:25:44;;;;;;;;;;;2.30;43.90;;;;;;5074086;28;19944;-68
2021/12/19 14:28:22;;;;;;;;;;;2.40;43.70;;;;;;5079487;28;19925;-68
2021/12/19 14:30:57;;;;;;;;;;;2.40;42.90;;;;;;5080840;28;20398;-70
2021/12/19 14:33:29;;;;;;;;;;;2.40;42.80;;;;;;5079072;28;19968;-69
2021/12/19 14:35:58;;;;;;;;;;;2.50;42.40;;;;;;5075736;28;19924;-68
2021/12/19 14:38:25;;;;;;;;;;;2.50;42.40;;;;;;5082050;28;19936;-67
2021/12/19 14:40:58;;;;;;;;;;;2.50;41.60;;;;;;5079501;28;19928;-68
2021/12/19 14:43:28;;;;;;;;;;;2.50;42.50;;;;;;5083506;28;19928;-67
2021/12/19 14:45:56;;;;;;;;;;;2.50;41.90;;;;;;5073384;28;19931;-68
2021/12/19 14:48:30;;;;;;;;;;;2.60;43.00;;;;;;5082861;28;19932;-68
2021/12/19 14:50:59;;;;;;;;;;;2.60;43.20;;;;;;5080268;28;19938;-68
2021/12/19 14:53:28;;;;;;;;;;;2.60;43.50;;;;;;5064306;28;19929;-68
2021/12/19 14:55:57;;;;;;;;;;;2.70;43.70;;;;;;5055230;28;19932;-68
2021/12/19 14:58:28;;;;;;;;;;;2.70;43.40;;;;;;5068170;28;20019;-68
2021/12/19 15:01:00;;;;;;;;;;;2.70;43.50;;;;;;5079280;28;19924;-68
2021/12/19 15:03:29;;;;;;;;;;;2.60;43.40;;;;;;5080965;28;19931;-68
2021/12/19 15:05:57;;;;;;;;;;;2.60;44.30;;;;;;5072641;28;19934;-68
2021/12/19 15:08:27;;;;;;;;;;;2.60;44.50;;;;;;5069650;28;20019;-68
2021/12/19 15:10:57;;;;;;;;;;;2.60;44.60;;;;;;5062026;28;19929;-68
2021/12/19 15:13:25;;;;;;;;;;;2.60;45.40;;;;;;5062721;28;19960;-68
2021/12/19 15:15:55;;;;;;;;;;;2.70;46.10;;;;;;5057374;28;20399;-68
2021/12/19 15:18:23;;;;;;;;;;;2.70;45.80;;;;;;5061892;28;19956;-68
2021/12/19 15:20:51;;;;;;;;;;;2.70;45.40;;;;;;5063237;28;19924;-68
2021/12/19 15:23:19;;;;;;;;;;;2.60;45.50;;;;;;5074185;28;19931;-68
2021/12/19 15:25:49;;;;;;;;;;;2.60;47.00;;;;;;5075981;28;19942;-68
2021/12/19 15:28:18;;;;;;;;;;;2.70;47.00;;;;;;5079844;28;20122;-68
2021/12/19 15:30:46;;;;;;;;;;;2.60;47.40;;;;;;5080949;28;19931;-68
2021/12/19 15:33:16;;;;;;;;;;;2.60;47.40;;;;;;5083480;28;20708;-68
2021/12/19 15:35:44;;;;;;;;;;;2.50;46.60;;;;;;5038557;28;19924;-68
2021/12/19 15:38:12;;;;;;;;;;;2.50;47.80;;;;;;5063754;28;19932;-68
2021/12/19 15:40:41;;;;;;;;;;;2.50;46.70;;;;;;5062896;28;20352;-68
2021/12/19 15:43:08;;;;;;;;;;;2.60;48.10;;;;;;5061849;28;19939;-68
2021/12/19 15:45:36;;;;;;;;;;;2.60;48.20;;;;;;5052877;28;19935;-68